sensor_id;sensor_type;location;lat;lon;timestamp;pressure;altitude;pressure_sealevel;temperature;humidity
25430;BME280;13360;48.152;-1.788;2023-09-08T00:02:25;102023.22;;;24.53;100.00
25430;BME280;13360;48.152;-1.788;2023-09-08T00:04:50;102029.59;;;24.50;100.00
25430;BME280;13360;48.152;-1.788;2023-09-08T00:07:15;102035.97;;;24.47;100.00
25430;BME280;13360;48.152;-1.788;2023-09-08T00:09:40;102062.47;;;24.42;100.00
25430;BME280;13360;48.152;-1.788;2023-09-08T00:12:06;102071.28;;;24.41;100.00
25430;BME280;13360;48.152;-1.788;2023-09-08T00:14:31;102086.22;;;24.41;100.00
25430;BME280;13360;48.152;-1.788;2023-09-08T00:16:56;102099.53;;;24.41;100.00
25430;BME280;13360;48.152;-1.788;2023-09-08T00:19:22;102112.47;;;24.42;100.00
25430;BME280;13360;48.152;-1.788;2023-09-08T00:21:48;102116.00;;;24.39;100.00
25430;BME280;13360;48.152;-1.788;2023-09-08T00:24:14;102122.84;;;24.38;100.00
25430;BME280;13360;48.152;-1.788;2023-09-08T00:26:39;102118.38;;;24.37;100.00
25430;BME280;13360;48.152;-1.788;2023-09-08T00:29:04;102113.78;;;24.32;100.00
25430;BME280;13360;48.152;-1.788;2023-09-08T00:31:30;102097.88;;;24.27;100.00
25430;BME280;13360;48.152;-1.788;2023-09-08T00:33:55;102086.50;;;24.24;100.00
25430;BME280;13360;48.152;-1.788;2023-09-08T00:36:20;102082.28;;;24.18;100.00
25430;BME280;13360;48.152;-1.788;2023-09-08T00:38:45;102092.16;;;24.12;100.00
25430;BME280;13360;48.152;-1.788;2023-09-08T00:41:11;102105.72;;;24.06;100.00
25430;BME280;13360;48.152;-1.788;2023-09-08T00:43:36;102124.16;;;24.03;100.00
25430;BME280;13360;48.152;-1.788;2023-09-08T00:46:01;102142.66;;;24.01;100.00
25430;BME280;13360;48.152;-1.788;2023-09-08T00:48:27;102161.09;;;23.98;100.00
25430;BME280;13360;48.152;-1.788;2023-09-08T00:50:53;102165.47;;;23.96;100.00
25430;BME280;13360;48.152;-1.788;2023-09-08T00:53:18;102163.47;;;23.96;100.00
25430;BME280;13360;48.152;-1.788;2023-09-08T00:55:43;102154.84;;;23.93;100.00
25430;BME280;13360;48.152;-1.788;2023-09-08T00:58:10;102154.41;;;23.91;100.00
25430;BME280;13360;48.152;-1.788;2023-09-08T01:00:36;102147.81;;;23.87;100.00
25430;BME280;13360;48.152;-1.788;2023-09-08T01:03:01;102144.06;;;23.83;100.00
25430;BME280;13360;48.152;-1.788;2023-09-08T01:05:27;102133.97;;;23.82;100.00
25430;BME280;13360;48.152;-1.788;2023-09-08T01:07:53;102132.66;;;23.79;100.00
25430;BME280;13360;48.152;-1.788;2023-09-08T01:10:18;102144.31;;;23.78;100.00
25430;BME280;13360;48.152;-1.788;2023-09-08T01:12:44;102149.50;;;23.76;100.00
25430;BME280;13360;48.152;-1.788;2023-09-08T01:15:09;102155.47;;;23.74;100.00
25430;BME280;13360;48.152;-1.788;2023-09-08T01:17:34;102156.63;;;23.73;100.00
25430;BME280;13360;48.152;-1.788;2023-09-08T01:25:32;102170.72;;;23.73;100.00
25430;BME280;13360;48.152;-1.788;2023-09-08T01:28:00;102180.38;;;23.72;100.00
25430;BME280;13360;48.152;-1.788;2023-09-08T01:30:26;102194.13;;;23.73;100.00
25430;BME280;13360;48.152;-1.788;2023-09-08T01:32:53;102188.97;;;23.76;100.00
25430;BME280;13360;48.152;-1.788;2023-09-08T01:35:19;102180.50;;;23.76;100.00
25430;BME280;13360;48.152;-1.788;2023-09-08T01:37:44;102184.50;;;23.75;100.00
25430;BME280;13360;48.152;-1.788;2023-09-08T01:40:10;102186.84;;;23.72;100.00
25430;BME280;13360;48.152;-1.788;2023-09-08T01:42:36;102192.00;;;23.70;100.00
25430;BME280;13360;48.152;-1.788;2023-09-08T01:45:01;102198.81;;;23.69;100.00
25430;BME280;13360;48.152;-1.788;2023-09-08T01:47:27;102185.06;;;23.68;100.00
25430;BME280;13360;48.152;-1.788;2023-09-08T01:49:52;102169.69;;;23.65;100.00
25430;BME280;13360;48.152;-1.788;2023-09-08T01:52:18;102174.84;;;23.63;100.00
25430;BME280;13360;48.152;-1.788;2023-09-08T01:54:43;102172.75;;;23.60;100.00
25430;BME280;13360;48.152;-1.788;2023-09-08T01:57:08;102167.81;;;23.57;100.00
25430;BME280;13360;48.152;-1.788;2023-09-08T01:59:33;102154.69;;;23.53;100.00
25430;BME280;13360;48.152;-1.788;2023-09-08T02:01:58;102165.03;;;23.49;100.00
25430;BME280;13360;48.152;-1.788;2023-09-08T02:04:24;102169.50;;;23.50;100.00
25430;BME280;13360;48.152;-1.788;2023-09-08T02:06:49;102163.41;;;23.48;100.00
25430;BME280;13360;48.152;-1.788;2023-09-08T02:09:14;102158.13;;;23.46;100.00
25430;BME280;13360;48.152;-1.788;2023-09-08T02:11:39;102131.81;;;23.42;100.00
25430;BME280;13360;48.152;-1.788;2023-09-08T02:14:05;102126.50;;;23.40;100.00
25430;BME280;13360;48.152;-1.788;2023-09-08T02:16:30;102144.50;;;23.36;100.00
25430;BME280;13360;48.152;-1.788;2023-09-08T02:18:55;102163.03;;;23.37;100.00
25430;BME280;13360;48.152;-1.788;2023-09-08T02:21:21;102185.59;;;23.37;100.00
25430;BME280;13360;48.152;-1.788;2023-09-08T02:23:46;102181.50;;;23.34;100.00
25430;BME280;13360;48.152;-1.788;2023-09-08T02:26:11;102193.78;;;23.30;100.00
25430;BME280;13360;48.152;-1.788;2023-09-08T02:28:36;102195.88;;;23.21;100.00
25430;BME280;13360;48.152;-1.788;2023-09-08T02:31:02;102205.75;;;23.15;100.00
25430;BME280;13360;48.152;-1.788;2023-09-08T02:33:27;102223.66;;;23.10;100.00
25430;BME280;13360;48.152;-1.788;2023-09-08T02:35:53;102243.28;;;23.06;100.00
25430;BME280;13360;48.152;-1.788;2023-09-08T02:38:18;102252.06;;;23.05;100.00
25430;BME280;13360;48.152;-1.788;2023-09-08T02:40:44;102275.31;;;23.02;100.00
25430;BME280;13360;48.152;-1.788;2023-09-08T02:43:09;102290.56;;;23.01;100.00
25430;BME280;13360;48.152;-1.788;2023-09-08T02:45:34;102303.00;;;23.00;100.00
25430;BME280;13360;48.152;-1.788;2023-09-08T02:47:59;102316.63;;;22.98;100.00
25430;BME280;13360;48.152;-1.788;2023-09-08T02:50:24;102330.72;;;22.98;100.00
25430;BME280;13360;48.152;-1.788;2023-09-08T02:52:50;102341.16;;;22.97;100.00
25430;BME280;13360;48.152;-1.788;2023-09-08T02:55:15;102347.97;;;22.96;100.00
25430;BME280;13360;48.152;-1.788;2023-09-08T02:57:40;102353.13;;;22.94;100.00
25430;BME280;13360;48.152;-1.788;2023-09-08T03:00:06;102374.47;;;22.95;100.00
25430;BME280;13360;48.152;-1.788;2023-09-08T03:02:32;102386.94;;;22.94;100.00
25430;BME280;13360;48.152;-1.788;2023-09-08T03:04:57;102385.28;;;22.93;100.00
25430;BME280;13360;48.152;-1.788;2023-09-08T03:07:23;102390.09;;;22.93;100.00
25430;BME280;13360;48.152;-1.788;2023-09-08T03:09:48;102404.00;;;22.89;100.00
25430;BME280;13360;48.152;-1.788;2023-09-08T03:12:13;102435.00;;;22.89;100.00
25430;BME280;13360;48.152;-1.788;2023-09-08T03:14:38;102460.69;;;22.88;100.00
25430;BME280;13360;48.152;-1.788;2023-09-08T03:17:04;102469.47;;;22.86;100.00
25430;BME280;13360;48.152;-1.788;2023-09-08T03:19:29;102463.03;;;22.86;100.00
25430;BME280;13360;48.152;-1.788;2023-09-08T03:21:54;102481.91;;;22.85;100.00
25430;BME280;13360;48.152;-1.788;2023-09-08T03:24:19;102478.63;;;22.83;100.00
25430;BME280;13360;48.152;-1.788;2023-09-08T03:26:44;102504.78;;;22.84;100.00
25430;BME280;13360;48.152;-1.788;2023-09-08T03:29:10;102511.59;;;22.83;100.00
25430;BME280;13360;48.152;-1.788;2023-09-08T03:31:35;102523.16;;;22.81;100.00
25430;BME280;13360;48.152;-1.788;2023-09-08T03:34:00;102534.44;;;22.81;100.00
25430;BME280;13360;48.152;-1.788;2023-09-08T03:36:25;102538.44;;;22.80;100.00
25430;BME280;13360;48.152;-1.788;2023-09-08T03:38:51;102544.06;;;22.80;100.00
25430;BME280;13360;48.152;-1.788;2023-09-08T03:41:16;102540.75;;;22.78;100.00
25430;BME280;13360;48.152;-1.788;2023-09-08T03:43:41;102536.28;;;22.77;100.00
25430;BME280;13360;48.152;-1.788;2023-09-08T03:46:06;102548.72;;;22.76;100.00
25430;BME280;13360;48.152;-1.788;2023-09-08T03:48:32;102561.97;;;22.75;100.00
25430;BME280;13360;48.152;-1.788;2023-09-08T03:50:58;102560.66;;;22.73;100.00
25430;BME280;13360;48.152;-1.788;2023-09-08T03:53:23;102563.47;;;22.73;100.00
25430;BME280;13360;48.152;-1.788;2023-09-08T03:55:48;102553.38;;;22.72;100.00
25430;BME280;13360;48.152;-1.788;2023-09-08T03:58:13;102534.16;;;22.65;100.00
25430;BME280;13360;48.152;-1.788;2023-09-08T04:00:39;102557.69;;;22.61;100.00
25430;BME280;13360;48.152;-1.788;2023-09-08T04:03:04;102596.63;;;22.59;100.00
25430;BME280;13360;48.152;-1.788;2023-09-08T04:05:29;102601.78;;;22.57;100.00
25430;BME280;13360;48.152;-1.788;2023-09-08T04:07:54;102598.97;;;22.57;100.00
25430;BME280;13360;48.152;-1.788;2023-09-08T04:10:20;102586.03;;;22.56;100.00
25430;BME280;13360;48.152;-1.788;2023-09-08T04:12:45;102589.53;;;22.52;100.00
25430;BME280;13360;48.152;-1.788;2023-09-08T04:15:10;102614.38;;;22.50;100.00
25430;BME280;13360;48.152;-1.788;2023-09-08T04:17:36;102621.47;;;22.48;100.00
25430;BME280;13360;48.152;-1.788;2023-09-08T04:20:02;102668.53;;;22.30;100.00
25430;BME280;13360;48.152;-1.788;2023-09-08T04:22:29;102747.00;;;22.23;100.00
25430;BME280;13360;48.152;-1.788;2023-09-08T04:24:55;102793.19;;;22.22;100.00
25430;BME280;13360;48.152;-1.788;2023-09-08T04:27:21;102799.81;;;22.26;100.00
25430;BME280;13360;48.152;-1.788;2023-09-08T04:29:46;102824.19;;;22.31;100.00
25430;BME280;13360;48.152;-1.788;2023-09-08T04:32:11;102823.00;;;22.23;100.00
25430;BME280;13360;48.152;-1.788;2023-09-08T04:34:40;102841.69;;;22.19;100.00
25430;BME280;13360;48.152;-1.788;2023-09-08T04:37:06;102858.09;;;22.17;100.00
25430;BME280;13360;48.152;-1.788;2023-09-08T04:39:32;102854.75;;;22.15;100.00
25430;BME280;13360;48.152;-1.788;2023-09-08T04:41:57;102865.00;;;22.11;100.00
25430;BME280;13360;48.152;-1.788;2023-09-08T04:44:22;102877.44;;;22.10;100.00
25430;BME280;13360;48.152;-1.788;2023-09-08T04:46:48;102899.44;;;22.08;100.00
25430;BME280;13360;48.152;-1.788;2023-09-08T04:49:13;102906.72;;;22.09;100.00
25430;BME280;13360;48.152;-1.788;2023-09-08T04:51:38;102912.53;;;22.12;100.00
25430;BME280;13360;48.152;-1.788;2023-09-08T04:54:03;102905.25;;;22.11;100.00
25430;BME280;13360;48.152;-1.788;2023-09-08T04:56:29;102898.78;;;22.11;100.00
25430;BME280;13360;48.152;-1.788;2023-09-08T04:58:54;102905.56;;;22.10;100.00
25430;BME280;13360;48.152;-1.788;2023-09-08T05:01:20;102908.50;;;22.05;100.00
25430;BME280;13360;48.152;-1.788;2023-09-08T05:03:45;102920.03;;;22.03;100.00
25430;BME280;13360;48.152;-1.788;2023-09-08T05:06:10;102926.16;;;21.97;100.00
25430;BME280;13360;48.152;-1.788;2023-09-08T05:08:37;102950.31;;;21.98;100.00
25430;BME280;13360;48.152;-1.788;2023-09-08T05:11:02;102955.44;;;21.96;100.00
25430;BME280;13360;48.152;-1.788;2023-09-08T05:13:28;102958.91;;;21.92;100.00
25430;BME280;13360;48.152;-1.788;2023-09-08T05:15:53;102968.69;;;21.95;100.00
25430;BME280;13360;48.152;-1.788;2023-09-08T05:18:25;102979.09;;;21.95;100.00
25430;BME280;13360;48.152;-1.788;2023-09-08T05:20:50;102986.00;;;21.88;100.00
25430;BME280;13360;48.152;-1.788;2023-09-08T05:23:15;103022.69;;;21.83;100.00
25430;BME280;13360;48.152;-1.788;2023-09-08T05:25:41;103052.81;;;21.83;100.00
25430;BME280;13360;48.152;-1.788;2023-09-08T05:28:07;103060.59;;;21.86;100.00
25430;BME280;13360;48.152;-1.788;2023-09-08T05:30:32;103071.34;;;21.84;100.00
25430;BME280;13360;48.152;-1.788;2023-09-08T05:32:57;103080.28;;;21.86;100.00
25430;BME280;13360;48.152;-1.788;2023-09-08T05:35:22;103075.63;;;21.81;100.00
25430;BME280;13360;48.152;-1.788;2023-09-08T05:37:48;103087.53;;;21.78;100.00
25430;BME280;13360;48.152;-1.788;2023-09-08T05:40:13;103097.75;;;21.74;100.00
25430;BME280;13360;48.152;-1.788;2023-09-08T05:42:38;103123.06;;;21.74;100.00
25430;BME280;13360;48.152;-1.788;2023-09-08T05:45:03;103128.69;;;21.74;100.00
25430;BME280;13360;48.152;-1.788;2023-09-08T05:47:29;103144.41;;;21.75;100.00
25430;BME280;13360;48.152;-1.788;2023-09-08T05:49:54;103159.81;;;21.78;100.00
25430;BME280;13360;48.152;-1.788;2023-09-08T05:52:19;103160.66;;;21.78;100.00
25430;BME280;13360;48.152;-1.788;2023-09-08T05:54:44;103176.38;;;21.79;100.00
25430;BME280;13360;48.152;-1.788;2023-09-08T05:57:10;103176.91;;;21.81;100.00
25430;BME280;13360;48.152;-1.788;2023-09-08T05:59:35;103163.16;;;21.80;100.00
25430;BME280;13360;48.152;-1.788;2023-09-08T06:02:00;103162.63;;;21.78;100.00
25430;BME280;13360;48.152;-1.788;2023-09-08T06:04:25;103193.25;;;21.79;100.00
25430;BME280;13360;48.152;-1.788;2023-09-08T06:06:50;103201.38;;;21.81;100.00
25430;BME280;13360;48.152;-1.788;2023-09-08T06:09:16;103202.75;;;21.83;100.00
25430;BME280;13360;48.152;-1.788;2023-09-08T06:11:41;103222.44;;;21.83;100.00
25430;BME280;13360;48.152;-1.788;2023-09-08T06:14:06;103229.19;;;21.82;100.00
25430;BME280;13360;48.152;-1.788;2023-09-08T06:16:32;103252.34;;;21.79;100.00
25430;BME280;13360;48.152;-1.788;2023-09-08T06:18:57;103275.69;;;21.80;100.00
25430;BME280;13360;48.152;-1.788;2023-09-08T06:21:22;103294.53;;;21.79;100.00
25430;BME280;13360;48.152;-1.788;2023-09-08T06:23:47;103303.81;;;21.80;100.00
25430;BME280;13360;48.152;-1.788;2023-09-08T06:26:13;103311.41;;;21.79;100.00
25430;BME280;13360;48.152;-1.788;2023-09-08T06:28:38;103329.97;;;21.80;100.00
25430;BME280;13360;48.152;-1.788;2023-09-08T06:31:06;103351.84;;;21.83;100.00
25430;BME280;13360;48.152;-1.788;2023-09-08T06:33:32;103359.06;;;21.89;100.00
25430;BME280;13360;48.152;-1.788;2023-09-08T06:35:57;103349.47;;;21.90;100.00
25430;BME280;13360;48.152;-1.788;2023-09-08T06:38:22;103351.16;;;21.91;100.00
25430;BME280;13360;48.152;-1.788;2023-09-08T06:40:47;103336.25;;;21.91;100.00
25430;BME280;13360;48.152;-1.788;2023-09-08T06:43:13;103337.91;;;21.92;100.00
25430;BME280;13360;48.152;-1.788;2023-09-08T06:45:38;103321.84;;;21.92;100.00
25430;BME280;13360;48.152;-1.788;2023-09-08T06:48:06;103318.53;;;21.90;100.00
25430;BME280;13360;48.152;-1.788;2023-09-08T06:50:31;103319.56;;;21.95;100.00
25430;BME280;13360;48.152;-1.788;2023-09-08T06:52:57;103318.41;;;21.96;100.00
25430;BME280;13360;48.152;-1.788;2023-09-08T06:55:22;103335.50;;;21.99;100.00
25430;BME280;13360;48.152;-1.788;2023-09-08T06:57:47;103340.75;;;22.06;100.00
25430;BME280;13360;48.152;-1.788;2023-09-08T07:00:12;103357.34;;;22.07;100.00
25430;BME280;13360;48.152;-1.788;2023-09-08T07:02:38;103384.53;;;22.12;100.00
25430;BME280;13360;48.152;-1.788;2023-09-08T07:05:03;103382.25;;;22.14;100.00
25430;BME280;13360;48.152;-1.788;2023-09-08T07:07:36;103382.13;;;22.19;100.00
25430;BME280;13360;48.152;-1.788;2023-09-08T07:10:02;103387.84;;;22.28;100.00
25430;BME280;13360;48.152;-1.788;2023-09-08T07:12:27;103404.25;;;22.39;100.00
25430;BME280;13360;48.152;-1.788;2023-09-08T07:14:53;103397.03;;;22.47;100.00
25430;BME280;13360;48.152;-1.788;2023-09-08T07:17:18;103400.47;;;22.58;100.00
25430;BME280;13360;48.152;-1.788;2023-09-08T07:19:43;103394.09;;;22.66;100.00
25430;BME280;13360;48.152;-1.788;2023-09-08T07:22:08;103397.22;;;22.78;100.00
25430;BME280;13360;48.152;-1.788;2023-09-08T07:24:34;103413.81;;;22.93;100.00
25430;BME280;13360;48.152;-1.788;2023-09-08T07:26:59;103404.28;;;23.03;100.00
25430;BME280;13360;48.152;-1.788;2023-09-08T07:29:25;103427.75;;;23.12;100.00
25430;BME280;13360;48.152;-1.788;2023-09-08T07:31:50;103430.13;;;23.19;100.00
25430;BME280;13360;48.152;-1.788;2023-09-08T07:34:16;103465.38;;;23.30;100.00
25430;BME280;13360;48.152;-1.788;2023-09-08T07:36:41;103508.09;;;23.37;100.00
25430;BME280;13360;48.152;-1.788;2023-09-08T07:39:06;103506.16;;;23.46;100.00
25430;BME280;13360;48.152;-1.788;2023-09-08T07:41:31;103523.19;;;23.55;100.00
25430;BME280;13360;48.152;-1.788;2023-09-08T07:43:57;103542.69;;;23.65;100.00
25430;BME280;13360;48.152;-1.788;2023-09-08T07:46:22;103543.41;;;23.70;100.00
25430;BME280;13360;48.152;-1.788;2023-09-08T07:48:47;103544.97;;;23.77;100.00
25430;BME280;13360;48.152;-1.788;2023-09-08T07:51:12;103525.22;;;23.77;100.00
25430;BME280;13360;48.152;-1.788;2023-09-08T07:53:38;103508.28;;;23.77;100.00
25430;BME280;13360;48.152;-1.788;2023-09-08T07:56:03;103515.09;;;23.76;100.00
25430;BME280;13360;48.152;-1.788;2023-09-08T07:58:29;103526.97;;;23.72;100.00
25430;BME280;13360;48.152;-1.788;2023-09-08T08:00:54;103541.94;;;23.73;100.00
25430;BME280;13360;48.152;-1.788;2023-09-08T08:03:19;103558.03;;;23.72;100.00
25430;BME280;13360;48.152;-1.788;2023-09-08T08:05:44;103585.72;;;23.70;100.00
25430;BME280;13360;48.152;-1.788;2023-09-08T08:08:10;103599.53;;;23.72;100.00
25430;BME280;13360;48.152;-1.788;2023-09-08T08:10:35;103609.97;;;23.71;100.00
25430;BME280;13360;48.152;-1.788;2023-09-08T08:13:00;103619.81;;;23.74;100.00
25430;BME280;13360;48.152;-1.788;2023-09-08T08:15:34;103621.50;;;23.75;100.00
25430;BME280;13360;48.152;-1.788;2023-09-08T08:17:59;103618.03;;;23.78;100.00
25430;BME280;13360;48.152;-1.788;2023-09-08T08:20:25;103605.25;;;23.81;100.00
25430;BME280;13360;48.152;-1.788;2023-09-08T08:22:50;103622.06;;;23.86;100.00
25430;BME280;13360;48.152;-1.788;2023-09-08T08:25:15;103606.16;;;23.90;100.00
25430;BME280;13360;48.152;-1.788;2023-09-08T08:27:40;103620.16;;;23.95;100.00
25430;BME280;13360;48.152;-1.788;2023-09-08T08:30:06;103619.22;;;23.99;100.00
25430;BME280;13360;48.152;-1.788;2023-09-08T08:32:32;103654.44;;;24.02;100.00
25430;BME280;13360;48.152;-1.788;2023-09-08T08:34:58;103687.03;;;24.08;100.00
25430;BME280;13360;48.152;-1.788;2023-09-08T08:37:23;103686.72;;;24.10;100.00
25430;BME280;13360;48.152;-1.788;2023-09-08T08:39:48;103652.81;;;24.10;100.00
25430;BME280;13360;48.152;-1.788;2023-09-08T08:42:14;103647.38;;;24.13;100.00
25430;BME280;13360;48.152;-1.788;2023-09-08T08:44:39;103629.81;;;24.16;100.00
25430;BME280;13360;48.152;-1.788;2023-09-08T08:47:06;103656.44;;;24.24;100.00
25430;BME280;13360;48.152;-1.788;2023-09-08T08:49:31;103716.16;;;24.31;100.00
25430;BME280;13360;48.152;-1.788;2023-09-08T08:51:58;103704.53;;;24.32;100.00
25430;BME280;13360;48.152;-1.788;2023-09-08T08:54:24;103658.50;;;24.32;100.00
25430;BME280;13360;48.152;-1.788;2023-09-08T08:56:49;103648.97;;;24.42;100.00
25430;BME280;13360;48.152;-1.788;2023-09-08T08:59:14;103708.09;;;24.60;100.00
25430;BME280;13360;48.152;-1.788;2023-09-08T09:01:41;103691.44;;;24.81;100.00
25430;BME280;13360;48.152;-1.788;2023-09-08T09:04:06;103653.66;;;25.00;100.00
25430;BME280;13360;48.152;-1.788;2023-09-08T09:06:32;103672.53;;;25.21;100.00
25430;BME280;13360;48.152;-1.788;2023-09-08T09:08:57;103664.97;;;25.48;100.00
25430;BME280;13360;48.152;-1.788;2023-09-08T09:11:24;103607.75;;;25.68;100.00
25430;BME280;13360;48.152;-1.788;2023-09-08T09:13:50;103545.16;;;25.87;100.00
25430;BME280;13360;48.152;-1.788;2023-09-08T09:16:15;103481.31;;;25.98;100.00
25430;BME280;13360;48.152;-1.788;2023-09-08T09:18:53;103401.53;;;26.05;100.00
25430;BME280;13360;48.152;-1.788;2023-09-08T09:21:18;103342.22;;;26.00;100.00
25430;BME280;13360;48.152;-1.788;2023-09-08T09:23:43;103319.56;;;26.00;100.00
25430;BME280;13360;48.152;-1.788;2023-09-08T09:26:09;103279.84;;;25.88;100.00
25430;BME280;13360;48.152;-1.788;2023-09-08T09:28:34;103268.84;;;25.86;100.00
25430;BME280;13360;48.152;-1.788;2023-09-08T09:31:11;103290.75;;;26.06;100.00
25430;BME280;13360;48.152;-1.788;2023-09-08T09:33:36;103269.19;;;26.14;100.00
25430;BME280;13360;48.152;-1.788;2023-09-08T09:36:01;103203.00;;;26.19;100.00
25430;BME280;13360;48.152;-1.788;2023-09-08T09:38:27;103178.28;;;26.28;100.00
25430;BME280;13360;48.152;-1.788;2023-09-08T09:40:53;103150.91;;;26.32;100.00
25430;BME280;13360;48.152;-1.788;2023-09-08T09:43:20;103132.97;;;26.28;100.00
25430;BME280;13360;48.152;-1.788;2023-09-08T09:45:45;103138.91;;;26.35;100.00
25430;BME280;13360;48.152;-1.788;2023-09-08T09:48:11;103128.19;;;26.20;100.00
25430;BME280;13360;48.152;-1.788;2023-09-08T09:50:37;103133.09;;;26.10;100.00
25430;BME280;13360;48.152;-1.788;2023-09-08T09:53:08;103121.00;;;26.01;100.00
25430;BME280;13360;48.152;-1.788;2023-09-08T09:55:34;103111.75;;;25.92;100.00
25430;BME280;13360;48.152;-1.788;2023-09-08T09:58:01;103136.97;;;25.85;100.00
25430;BME280;13360;48.152;-1.788;2023-09-08T10:00:29;103145.16;;;25.78;100.00
25430;BME280;13360;48.152;-1.788;2023-09-08T10:02:54;103154.34;;;25.75;100.00
25430;BME280;13360;48.152;-1.788;2023-09-08T10:05:20;103154.34;;;25.75;100.00
25430;BME280;13360;48.152;-1.788;2023-09-08T10:07:48;103131.69;;;25.75;100.00
25430;BME280;13360;48.152;-1.788;2023-09-08T10:10:14;103120.94;;;25.68;100.00
25430;BME280;13360;48.152;-1.788;2023-09-08T10:12:40;103156.56;;;25.69;100.00
25430;BME280;13360;48.152;-1.788;2023-09-08T10:15:08;103152.69;;;25.74;100.00
25430;BME280;13360;48.152;-1.788;2023-09-08T10:17:35;103178.25;;;25.86;100.00
25430;BME280;13360;48.152;-1.788;2023-09-08T10:20:01;103164.50;;;25.97;100.00
25430;BME280;13360;48.152;-1.788;2023-09-08T10:22:33;103159.47;;;26.02;100.00
25430;BME280;13360;48.152;-1.788;2023-09-08T10:25:01;103193.97;;;26.04;100.00
25430;BME280;13360;48.152;-1.788;2023-09-08T10:27:28;103181.47;;;26.05;100.00
25430;BME280;13360;48.152;-1.788;2023-09-08T10:29:54;103198.09;;;26.07;100.00
25430;BME280;13360;48.152;-1.788;2023-09-08T10:32:20;103153.16;;;26.05;100.00
25430;BME280;13360;48.152;-1.788;2023-09-08T10:34:46;103135.66;;;26.03;100.00
25430;BME280;13360;48.152;-1.788;2023-09-08T10:37:19;103135.16;;;26.01;100.00
25430;BME280;13360;48.152;-1.788;2023-09-08T10:39:44;103122.88;;;25.97;100.00
25430;BME280;13360;48.152;-1.788;2023-09-08T10:47:12;103076.88;;;26.00;100.00
25430;BME280;13360;48.152;-1.788;2023-09-08T10:49:37;103086.84;;;26.06;100.00
25430;BME280;13360;48.152;-1.788;2023-09-08T10:52:10;103068.69;;;26.20;100.00
25430;BME280;13360;48.152;-1.788;2023-09-08T10:54:45;103069.50;;;26.41;100.00
25430;BME280;13360;48.152;-1.788;2023-09-08T10:57:12;103107.47;;;26.61;100.00
25430;BME280;13360;48.152;-1.788;2023-09-08T10:59:38;103062.25;;;26.64;100.00
25430;BME280;13360;48.152;-1.788;2023-09-08T11:02:03;103028.94;;;26.61;100.00
25430;BME280;13360;48.152;-1.788;2023-09-08T11:04:29;102989.75;;;26.51;100.00
25430;BME280;13360;48.152;-1.788;2023-09-08T11:06:56;102958.31;;;26.44;100.00
25430;BME280;13360;48.152;-1.788;2023-09-08T11:09:21;102912.84;;;26.40;100.00
25430;BME280;13360;48.152;-1.788;2023-09-08T11:11:48;102879.31;;;26.42;100.00
25430;BME280;13360;48.152;-1.788;2023-09-08T11:14:13;102872.63;;;26.47;100.00
25430;BME280;13360;48.152;-1.788;2023-09-08T11:16:40;102823.16;;;26.45;100.00
25430;BME280;13360;48.152;-1.788;2023-09-08T11:19:05;102803.31;;;26.45;100.00
25430;BME280;13360;48.152;-1.788;2023-09-08T11:21:31;102732.97;;;26.47;100.00
25430;BME280;13360;48.152;-1.788;2023-09-08T11:24:00;102748.16;;;26.54;100.00
25430;BME280;13360;48.152;-1.788;2023-09-08T11:26:25;102747.91;;;26.59;100.00
25430;BME280;13360;48.152;-1.788;2023-09-08T11:28:51;102709.31;;;26.55;100.00
25430;BME280;13360;48.152;-1.788;2023-09-08T11:31:18;102656.56;;;26.50;100.00
25430;BME280;13360;48.152;-1.788;2023-09-08T11:33:43;102628.59;;;26.49;100.00
25430;BME280;13360;48.152;-1.788;2023-09-08T11:36:12;102506.16;;;26.43;100.00
25430;BME280;13360;48.152;-1.788;2023-09-08T11:38:39;102496.59;;;26.48;100.00
25430;BME280;13360;48.152;-1.788;2023-09-08T11:41:05;102515.53;;;26.59;100.00
25430;BME280;13360;48.152;-1.788;2023-09-08T11:43:31;102496.59;;;26.63;100.00
25430;BME280;13360;48.152;-1.788;2023-09-08T11:45:58;102478.31;;;26.61;100.00
25430;BME280;13360;48.152;-1.788;2023-09-08T11:48:24;102533.56;;;26.67;100.00
25430;BME280;13360;48.152;-1.788;2023-09-08T11:50:49;102519.03;;;26.68;100.00
25430;BME280;13360;48.152;-1.788;2023-09-08T11:53:18;102505.31;;;26.70;100.00
25430;BME280;13360;48.152;-1.788;2023-09-08T11:55:44;102527.25;;;26.73;100.00
25430;BME280;13360;48.152;-1.788;2023-09-08T11:58:09;102548.38;;;26.76;100.00
25430;BME280;13360;48.152;-1.788;2023-09-08T12:00:35;102548.91;;;26.82;100.00
25430;BME280;13360;48.152;-1.788;2023-09-08T12:03:09;102577.19;;;26.94;100.00
25430;BME280;13360;48.152;-1.788;2023-09-08T12:05:34;102578.78;;;27.07;100.00
25430;BME280;13360;48.152;-1.788;2023-09-08T12:08:03;102527.25;;;27.05;100.00
25430;BME280;13360;48.152;-1.788;2023-09-08T12:10:29;102491.97;;;27.02;100.00
25430;BME280;13360;48.152;-1.788;2023-09-08T12:12:55;102490.03;;;27.07;100.00
25430;BME280;13360;48.152;-1.788;2023-09-08T12:18:14;102445.84;;;27.06;100.00
25430;BME280;13360;48.152;-1.788;2023-09-08T12:20:40;102437.00;;;27.07;100.00
25430;BME280;13360;48.152;-1.788;2023-09-08T12:23:06;102390.06;;;27.10;100.00
25430;BME280;13360;48.152;-1.788;2023-09-08T12:25:49;102349.63;;;27.13;100.00
25430;BME280;13360;48.152;-1.788;2023-09-08T12:28:17;102291.00;;;27.20;100.00
25430;BME280;13360;48.152;-1.788;2023-09-08T12:30:42;102285.03;;;27.25;100.00
25430;BME280;13360;48.152;-1.788;2023-09-08T12:33:08;102237.72;;;27.29;100.00
25430;BME280;13360;48.152;-1.788;2023-09-08T12:35:35;102220.78;;;27.33;100.00
25430;BME280;13360;48.152;-1.788;2023-09-08T12:38:01;102230.59;;;27.39;100.00